sensor_id;sensor_type;location;lat;lon;timestamp;temperature;humidity
21582;DHT22;10952;50.836;4.348;2023-02-08T00:01:20;4.60;99.90
21582;DHT22;10952;50.836;4.348;2023-02-08T00:03:50;4.80;99.90
21582;DHT22;10952;50.836;4.348;2023-02-08T00:06:19;4.80;99.90
21582;DHT22;10952;50.836;4.348;2023-02-08T00:08:51;4.80;99.90
21582;DHT22;10952;50.836;4.348;2023-02-08T00:11:19;4.70;99.90
21582;DHT22;10952;50.836;4.348;2023-02-08T00:13:47;4.70;99.90
21582;DHT22;10952;50.836;4.348;2023-02-08T00:16:14;4.80;99.90
21582;DHT22;10952;50.836;4.348;2023-02-08T00:18:43;4.50;99.90
21582;DHT22;10952;50.836;4.348;2023-02-08T00:21:15;4.30;99.90
21582;DHT22;10952;50.836;4.348;2023-02-08T00:24:07;4.30;99.90
21582;DHT22;10952;50.836;4.348;2023-02-08T00:26:42;4.40;99.90
21582;DHT22;10952;50.836;4.348;2023-02-08T00:29:11;4.40;99.90
21582;DHT22;10952;50.836;4.348;2023-02-08T00:31:40;4.40;99.90
21582;DHT22;10952;50.836;4.348;2023-02-08T00:34:08;4.40;99.90
21582;DHT22;10952;50.836;4.348;2023-02-08T00:36:35;4.30;99.90
21582;DHT22;10952;50.836;4.348;2023-02-08T00:39:04;4.30;99.90
21582;DHT22;10952;50.836;4.348;2023-02-08T00:41:32;4.40;99.90
21582;DHT22;10952;50.836;4.348;2023-02-08T00:43:58;4.40;99.90
21582;DHT22;10952;50.836;4.348;2023-02-08T00:46:25;4.40;99.90
21582;DHT22;10952;50.836;4.348;2023-02-08T00:48:53;4.40;99.90
21582;DHT22;10952;50.836;4.348;2023-02-08T00:51:20;4.50;99.90
21582;DHT22;10952;50.836;4.348;2023-02-08T00:53:52;4.50;99.90
21582;DHT22;10952;50.836;4.348;2023-02-08T00:56:18;4.80;99.90
21582;DHT22;10952;50.836;4.348;2023-02-08T00:58:46;4.80;99.90
21582;DHT22;10952;50.836;4.348;2023-02-08T01:01:15;4.80;99.90
21582;DHT22;10952;50.836;4.348;2023-02-08T01:03:44;4.70;99.90
21582;DHT22;10952;50.836;4.348;2023-02-08T01:06:15;4.60;99.90
21582;DHT22;10952;50.836;4.348;2023-02-08T01:08:42;4.70;99.90
21582;DHT22;10952;50.836;4.348;2023-02-08T01:11:14;4.70;99.90
21582;DHT22;10952;50.836;4.348;2023-02-08T01:16:39;4.20;99.90
21582;DHT22;10952;50.836;4.348;2023-02-08T01:19:08;4.30;99.90
21582;DHT22;10952;50.836;4.348;2023-02-08T01:21:39;4.30;99.90
21582;DHT22;10952;50.836;4.348;2023-02-08T01:24:08;4.20;99.90
21582;DHT22;10952;50.836;4.348;2023-02-08T01:26:38;4.20;99.90
21582;DHT22;10952;50.836;4.348;2023-02-08T01:29:07;4.20;99.90
21582;DHT22;10952;50.836;4.348;2023-02-08T01:31:43;4.20;99.90
21582;DHT22;10952;50.836;4.348;2023-02-08T01:34:12;4.20;99.90
21582;DHT22;10952;50.836;4.348;2023-02-08T01:36:41;4.10;99.90
21582;DHT22;10952;50.836;4.348;2023-02-08T01:39:10;4.10;99.90
21582;DHT22;10952;50.836;4.348;2023-02-08T01:41:42;4.10;99.90
21582;DHT22;10952;50.836;4.348;2023-02-08T01:46:42;3.90;99.90
21582;DHT22;10952;50.836;4.348;2023-02-08T01:49:15;3.80;99.90
21582;DHT22;10952;50.836;4.348;2023-02-08T01:52:08;3.70;99.90
21582;DHT22;10952;50.836;4.348;2023-02-08T01:54:47;3.70;99.90
21582;DHT22;10952;50.836;4.348;2023-02-08T01:57:14;3.70;99.90
21582;DHT22;10952;50.836;4.348;2023-02-08T02:00:03;3.70;99.90
21582;DHT22;10952;50.836;4.348;2023-02-08T02:02:35;3.70;99.90
21582;DHT22;10952;50.836;4.348;2023-02-08T02:05:02;3.70;99.90
21582;DHT22;10952;50.836;4.348;2023-02-08T02:07:46;3.50;99.90
21582;DHT22;10952;50.836;4.348;2023-02-08T02:10:35;3.60;99.90
21582;DHT22;10952;50.836;4.348;2023-02-08T02:13:08;3.60;99.90
21582;DHT22;10952;50.836;4.348;2023-02-08T02:15:35;3.60;99.90
21582;DHT22;10952;50.836;4.348;2023-02-08T02:18:05;3.60;99.90
21582;DHT22;10952;50.836;4.348;2023-02-08T02:23:52;3.50;99.90
21582;DHT22;10952;50.836;4.348;2023-02-08T02:27:01;3.40;99.90
21582;DHT22;10952;50.836;4.348;2023-02-08T02:29:38;3.40;99.90
21582;DHT22;10952;50.836;4.348;2023-02-08T02:38:06;3.30;99.90
21582;DHT22;10952;50.836;4.348;2023-02-08T02:40:45;3.20;99.90
21582;DHT22;10952;50.836;4.348;2023-02-08T02:43:37;3.20;99.90
21582;DHT22;10952;50.836;4.348;2023-02-08T02:49:24;3.30;99.90
21582;DHT22;10952;50.836;4.348;2023-02-08T02:52:05;3.20;99.90
21582;DHT22;10952;50.836;4.348;2023-02-08T02:58:09;3.00;99.90
21582;DHT22;10952;50.836;4.348;2023-02-08T03:07:26;2.80;99.90
21582;DHT22;10952;50.836;4.348;2023-02-08T03:10:27;2.80;99.90
21582;DHT22;10952;50.836;4.348;2023-02-08T03:24:53;3.10;99.90
21582;DHT22;10952;50.836;4.348;2023-02-08T03:28:25;3.00;99.90
21582;DHT22;10952;50.836;4.348;2023-02-08T03:30:49;2.90;99.90
21582;DHT22;10952;50.836;4.348;2023-02-08T03:36:05;3.00;99.90
21582;DHT22;10952;50.836;4.348;2023-02-08T03:38:40;3.00;99.90
21582;DHT22;10952;50.836;4.348;2023-02-08T03:41:14;3.00;99.90
21582;DHT22;10952;50.836;4.348;2023-02-08T03:43:48;3.20;99.90
21582;DHT22;10952;50.836;4.348;2023-02-08T03:46:31;3.20;99.90
21582;DHT22;10952;50.836;4.348;2023-02-08T03:52:21;3.10;99.90
21582;DHT22;10952;50.836;4.348;2023-02-08T03:55:00;3.00;99.90
21582;DHT22;10952;50.836;4.348;2023-02-08T04:00:41;3.10;99.90
21582;DHT22;10952;50.836;4.348;2023-02-08T04:03:24;3.00;99.90
21582;DHT22;10952;50.836;4.348;2023-02-08T04:05:52;2.90;99.90
21582;DHT22;10952;50.836;4.348;2023-02-08T04:08:18;3.00;99.90
21582;DHT22;10952;50.836;4.348;2023-02-08T04:10:46;3.00;99.90
21582;DHT22;10952;50.836;4.348;2023-02-08T04:13:15;3.00;99.90
21582;DHT22;10952;50.836;4.348;2023-02-08T04:15:43;3.10;99.90
21582;DHT22;10952;50.836;4.348;2023-02-08T04:18:10;3.20;99.90
21582;DHT22;10952;50.836;4.348;2023-02-08T04:20:39;3.20;99.90
21582;DHT22;10952;50.836;4.348;2023-02-08T04:23:04;3.10;99.90
21582;DHT22;10952;50.836;4.348;2023-02-08T04:25:33;3.10;99.90
21582;DHT22;10952;50.836;4.348;2023-02-08T04:28:02;3.20;99.90
21582;DHT22;10952;50.836;4.348;2023-02-08T04:30:33;3.10;99.90
21582;DHT22;10952;50.836;4.348;2023-02-08T04:33:02;3.10;99.90
21582;DHT22;10952;50.836;4.348;2023-02-08T04:35:31;3.00;99.90
21582;DHT22;10952;50.836;4.348;2023-02-08T04:38:00;3.00;99.90
21582;DHT22;10952;50.836;4.348;2023-02-08T04:40:29;2.90;99.90
21582;DHT22;10952;50.836;4.348;2023-02-08T04:42:58;2.90;99.90
21582;DHT22;10952;50.836;4.348;2023-02-08T04:45:32;2.90;99.90
21582;DHT22;10952;50.836;4.348;2023-02-08T04:48:00;2.90;99.90
21582;DHT22;10952;50.836;4.348;2023-02-08T04:50:26;3.00;99.90
21582;DHT22;10952;50.836;4.348;2023-02-08T04:52:58;3.10;99.90
21582;DHT22;10952;50.836;4.348;2023-02-08T04:55:24;3.10;99.90
21582;DHT22;10952;50.836;4.348;2023-02-08T04:57:49;3.20;99.90
21582;DHT22;10952;50.836;4.348;2023-02-08T05:00:15;3.20;99.90
21582;DHT22;10952;50.836;4.348;2023-02-08T05:02:42;3.30;99.90
21582;DHT22;10952;50.836;4.348;2023-02-08T05:05:07;3.20;99.90
21582;DHT22;10952;50.836;4.348;2023-02-08T05:07:33;3.20;99.90
21582;DHT22;10952;50.836;4.348;2023-02-08T05:09:59;3.20;99.90
21582;DHT22;10952;50.836;4.348;2023-02-08T05:12:24;3.10;99.90
21582;DHT22;10952;50.836;4.348;2023-02-08T05:14:50;3.00;99.90
21582;DHT22;10952;50.836;4.348;2023-02-08T05:17:15;3.00;99.90
21582;DHT22;10952;50.836;4.348;2023-02-08T05:19:41;3.00;99.90
21582;DHT22;10952;50.836;4.348;2023-02-08T05:22:08;3.10;99.90
21582;DHT22;10952;50.836;4.348;2023-02-08T05:24:33;3.00;99.90
21582;DHT22;10952;50.836;4.348;2023-02-08T05:26:59;3.00;99.90
21582;DHT22;10952;50.836;4.348;2023-02-08T05:29:24;3.00;99.90
21582;DHT22;10952;50.836;4.348;2023-02-08T05:31:50;3.00;99.90
21582;DHT22;10952;50.836;4.348;2023-02-08T05:34:16;2.90;99.90
21582;DHT22;10952;50.836;4.348;2023-02-08T05:36:42;2.80;99.90
21582;DHT22;10952;50.836;4.348;2023-02-08T05:39:08;2.80;99.90
21582;DHT22;10952;50.836;4.348;2023-02-08T05:41:33;2.90;99.90
21582;DHT22;10952;50.836;4.348;2023-02-08T05:43:59;2.90;99.90
21582;DHT22;10952;50.836;4.348;2023-02-08T05:46:25;2.90;99.90
21582;DHT22;10952;50.836;4.348;2023-02-08T05:48:50;2.90;99.90
21582;DHT22;10952;50.836;4.348;2023-02-08T05:51:16;2.90;99.90
21582;DHT22;10952;50.836;4.348;2023-02-08T05:53:41;2.80;99.90
21582;DHT22;10952;50.836;4.348;2023-02-08T05:56:08;2.90;99.90
21582;DHT22;10952;50.836;4.348;2023-02-08T05:58:34;2.80;99.90
21582;DHT22;10952;50.836;4.348;2023-02-08T06:00:59;2.70;99.90
21582;DHT22;10952;50.836;4.348;2023-02-08T06:03:25;2.70;99.90
21582;DHT22;10952;50.836;4.348;2023-02-08T06:05:52;2.70;99.90
21582;DHT22;10952;50.836;4.348;2023-02-08T06:08:19;2.80;99.90
21582;DHT22;10952;50.836;4.348;2023-02-08T06:10:47;2.80;99.90
21582;DHT22;10952;50.836;4.348;2023-02-08T06:13:13;2.80;99.90
21582;DHT22;10952;50.836;4.348;2023-02-08T06:15:40;2.90;99.90
21582;DHT22;10952;50.836;4.348;2023-02-08T06:18:05;2.90;99.90
21582;DHT22;10952;50.836;4.348;2023-02-08T06:20:32;2.80;99.90
21582;DHT22;10952;50.836;4.348;2023-02-08T06:22:59;2.80;99.90
21582;DHT22;10952;50.836;4.348;2023-02-08T06:25:25;2.90;99.90
21582;DHT22;10952;50.836;4.348;2023-02-08T06:27:51;2.70;99.90
21582;DHT22;10952;50.836;4.348;2023-02-08T06:30:17;2.80;99.90
21582;DHT22;10952;50.836;4.348;2023-02-08T06:32:43;2.70;99.90
21582;DHT22;10952;50.836;4.348;2023-02-08T06:35:08;2.70;99.90
21582;DHT22;10952;50.836;4.348;2023-02-08T06:37:34;2.80;99.90
21582;DHT22;10952;50.836;4.348;2023-02-08T06:40:00;2.80;99.90
21582;DHT22;10952;50.836;4.348;2023-02-08T06:42:26;2.90;99.90
21582;DHT22;10952;50.836;4.348;2023-02-08T06:44:52;3.00;99.90
21582;DHT22;10952;50.836;4.348;2023-02-08T06:47:21;3.00;99.90
21582;DHT22;10952;50.836;4.348;2023-02-08T06:49:46;3.00;99.90
21582;DHT22;10952;50.836;4.348;2023-02-08T06:52:12;3.00;99.90
21582;DHT22;10952;50.836;4.348;2023-02-08T06:54:37;2.80;99.90
21582;DHT22;10952;50.836;4.348;2023-02-08T06:57:04;2.80;99.90
21582;DHT22;10952;50.836;4.348;2023-02-08T06:59:32;2.90;99.90
21582;DHT22;10952;50.836;4.348;2023-02-08T07:01:58;2.90;99.90
21582;DHT22;10952;50.836;4.348;2023-02-08T07:04:23;2.90;99.90
21582;DHT22;10952;50.836;4.348;2023-02-08T07:06:49;2.90;99.90
21582;DHT22;10952;50.836;4.348;2023-02-08T07:09:16;3.00;99.90
21582;DHT22;10952;50.836;4.348;2023-02-08T07:11:41;3.00;99.90
21582;DHT22;10952;50.836;4.348;2023-02-08T07:14:11;2.90;99.90
21582;DHT22;10952;50.836;4.348;2023-02-08T07:16:38;2.90;99.90
21582;DHT22;10952;50.836;4.348;2023-02-08T07:19:04;3.00;99.90
21582;DHT22;10952;50.836;4.348;2023-02-08T07:21:33;3.10;99.90
21582;DHT22;10952;50.836;4.348;2023-02-08T07:23:58;3.20;99.90
21582;DHT22;10952;50.836;4.348;2023-02-08T07:26:24;3.10;99.90
21582;DHT22;10952;50.836;4.348;2023-02-08T07:28:49;3.00;99.90
21582;DHT22;10952;50.836;4.348;2023-02-08T07:31:16;3.00;99.90
21582;DHT22;10952;50.836;4.348;2023-02-08T07:33:42;3.00;99.90
21582;DHT22;10952;50.836;4.348;2023-02-08T07:36:09;3.00;99.90
21582;DHT22;10952;50.836;4.348;2023-02-08T07:38:36;3.00;99.90
21582;DHT22;10952;50.836;4.348;2023-02-08T07:41:12;3.10;99.90
21582;DHT22;10952;50.836;4.348;2023-02-08T07:43:39;3.20;99.90
21582;DHT22;10952;50.836;4.348;2023-02-08T07:46:14;3.20;99.90
21582;DHT22;10952;50.836;4.348;2023-02-08T07:48:41;3.20;99.90
21582;DHT22;10952;50.836;4.348;2023-02-08T07:51:10;3.20;99.90
21582;DHT22;10952;50.836;4.348;2023-02-08T07:53:42;3.10;99.90
21582;DHT22;10952;50.836;4.348;2023-02-08T07:56:11;3.10;99.90
21582;DHT22;10952;50.836;4.348;2023-02-08T07:58:40;3.10;99.90
21582;DHT22;10952;50.836;4.348;2023-02-08T08:01:21;3.30;99.90
21582;DHT22;10952;50.836;4.348;2023-02-08T08:03:47;3.20;99.90
21582;DHT22;10952;50.836;4.348;2023-02-08T08:06:20;3.30;99.90
21582;DHT22;10952;50.836;4.348;2023-02-08T08:08:50;3.30;99.90
21582;DHT22;10952;50.836;4.348;2023-02-08T08:11:40;3.50;99.90
21582;DHT22;10952;50.836;4.348;2023-02-08T08:17:28;3.40;99.90
21582;DHT22;10952;50.836;4.348;2023-02-08T08:20:00;3.40;99.90
21582;DHT22;10952;50.836;4.348;2023-02-08T08:22:29;3.30;99.90
21582;DHT22;10952;50.836;4.348;2023-02-08T08:28:05;3.30;99.90
21582;DHT22;10952;50.836;4.348;2023-02-08T08:30:40;3.50;99.90
21582;DHT22;10952;50.836;4.348;2023-02-08T08:33:08;3.70;99.90
21582;DHT22;10952;50.836;4.348;2023-02-08T08:35:34;3.80;99.90
21582;DHT22;10952;50.836;4.348;2023-02-08T08:38:03;3.80;99.90
21582;DHT22;10952;50.836;4.348;2023-02-08T08:40:45;3.90;99.90
21582;DHT22;10952;50.836;4.348;2023-02-08T08:43:10;4.10;99.90
21582;DHT22;10952;50.836;4.348;2023-02-08T08:45:41;4.10;99.90
21582;DHT22;10952;50.836;4.348;2023-02-08T08:48:14;4.20;99.90
21582;DHT22;10952;50.836;4.348;2023-02-08T08:50:43;4.30;99.90
21582;DHT22;10952;50.836;4.348;2023-02-08T08:53:11;4.20;99.90
21582;DHT22;10952;50.836;4.348;2023-02-08T08:55:40;4.20;99.90
21582;DHT22;10952;50.836;4.348;2023-02-08T08:58:09;4.30;99.90
21582;DHT22;10952;50.836;4.348;2023-02-08T09:00:35;4.30;99.90
21582;DHT22;10952;50.836;4.348;2023-02-08T09:03:03;4.30;99.90
21582;DHT22;10952;50.836;4.348;2023-02-08T09:05:37;4.30;99.90
21582;DHT22;10952;50.836;4.348;2023-02-08T09:08:16;4.30;99.90
21582;DHT22;10952;50.836;4.348;2023-02-08T09:10:44;4.40;99.90
21582;DHT22;10952;50.836;4.348;2023-02-08T09:13:12;4.40;99.90
21582;DHT22;10952;50.836;4.348;2023-02-08T09:15:47;4.60;99.90
21582;DHT22;10952;50.836;4.348;2023-02-08T09:18:16;4.60;99.90
21582;DHT22;10952;50.836;4.348;2023-02-08T09:20:45;4.60;99.90
21582;DHT22;10952;50.836;4.348;2023-02-08T09:23:12;4.80;99.90
21582;DHT22;10952;50.836;4.348;2023-02-08T09:25:41;4.80;99.90
21582;DHT22;10952;50.836;4.348;2023-02-08T09:28:15;4.80;99.90
21582;DHT22;10952;50.836;4.348;2023-02-08T09:30:46;4.90;99.90
21582;DHT22;10952;50.836;4.348;2023-02-08T09:33:15;4.80;99.90
21582;DHT22;10952;50.836;4.348;2023-02-08T09:35:44;4.80;99.90
21582;DHT22;10952;50.836;4.348;2023-02-08T09:38:13;4.80;99.90
21582;DHT22;10952;50.836;4.348;2023-02-08T09:43:43;5.10;99.90
21582;DHT22;10952;50.836;4.348;2023-02-08T09:46:29;5.20;99.90
21582;DHT22;10952;50.836;4.348;2023-02-08T09:48:59;5.20;99.90
21582;DHT22;10952;50.836;4.348;2023-02-08T09:51:37;5.20;99.90
21582;DHT22;10952;50.836;4.348;2023-02-08T09:54:06;5.20;99.90
21582;DHT22;10952;50.836;4.348;2023-02-08T09:56:36;5.30;99.90
21582;DHT22;10952;50.836;4.348;2023-02-08T09:59:12;5.30;99.90
21582;DHT22;10952;50.836;4.348;2023-02-08T10:01:42;5.50;99.90
21582;DHT22;10952;50.836;4.348;2023-02-08T10:04:21;5.50;99.90
21582;DHT22;10952;50.836;4.348;2023-02-08T10:06:48;5.80;99.90
21582;DHT22;10952;50.836;4.348;2023-02-08T10:09:28;5.80;99.90
21582;DHT22;10952;50.836;4.348;2023-02-08T10:12:27;5.80;99.90
21582;DHT22;10952;50.836;4.348;2023-02-08T10:36:24;6.70;95.50
21582;DHT22;10952;50.836;4.348;2023-02-08T10:38:52;6.90;94.10
21582;DHT22;10952;50.836;4.348;2023-02-08T10:41:23;6.80;93.80
21582;DHT22;10952;50.836;4.348;2023-02-08T10:44:29;7.10;90.70
21582;DHT22;10952;50.836;4.348;2023-02-08T10:50:06;7.60;91.70
21582;DHT22;10952;50.836;4.348;2023-02-08T10:52:32;7.40;91.40
21582;DHT22;10952;50.836;4.348;2023-02-08T10:54:59;7.70;90.80
21582;DHT22;10952;50.836;4.348;2023-02-08T10:57:32;8.20;90.70
21582;DHT22;10952;50.836;4.348;2023-02-08T11:00:03;9.40;90.00
21582;DHT22;10952;50.836;4.348;2023-02-08T11:02:37;11.70;83.50
21582;DHT22;10952;50.836;4.348;2023-02-08T11:05:11;14.30;77.20
21582;DHT22;10952;50.836;4.348;2023-02-08T11:07:38;16.50;70.60
21582;DHT22;10952;50.836;4.348;2023-02-08T11:10:24;18.00;59.20
21582;DHT22;10952;50.836;4.348;2023-02-08T11:13:18;19.30;55.50
21582;DHT22;10952;50.836;4.348;2023-02-08T11:15:55;20.30;51.60
21582;DHT22;10952;50.836;4.348;2023-02-08T11:18:28;20.90;48.00
21582;DHT22;10952;50.836;4.348;2023-02-08T11:21:19;20.90;47.40
21582;DHT22;10952;50.836;4.348;2023-02-08T11:23:49;21.20;45.60
21582;DHT22;10952;50.836;4.348;2023-02-08T11:26:33;21.80;43.80
21582;DHT22;10952;50.836;4.348;2023-02-08T11:29:17;21.60;42.70
21582;DHT22;10952;50.836;4.348;2023-02-08T11:32:00;21.30;41.50
21582;DHT22;10952;50.836;4.348;2023-02-08T11:34:36;20.80;42.60
21582;DHT22;10952;50.836;4.348;2023-02-08T11:37:26;20.10;43.50
21582;DHT22;10952;50.836;4.348;2023-02-08T11:39:59;20.10;43.20
21582;DHT22;10952;50.836;4.348;2023-02-08T11:42:33;20.20;43.50
21582;DHT22;10952;50.836;4.348;2023-02-08T11:45:03;20.60;42.20
21582;DHT22;10952;50.836;4.348;2023-02-08T11:47:34;20.80;41.60
21582;DHT22;10952;50.836;4.348;2023-02-08T11:50:05;21.10;41.70
21582;DHT22;10952;50.836;4.348;2023-02-08T11:52:40;21.30;40.40
21582;DHT22;10952;50.836;4.348;2023-02-08T11:55:34;20.80;41.10
21582;DHT22;10952;50.836;4.348;2023-02-08T11:58:23;20.70;41.70
21582;DHT22;10952;50.836;4.348;2023-02-08T12:01:04;20.50;41.40
21582;DHT22;10952;50.836;4.348;2023-02-08T12:03:38;20.50;41.30
21582;DHT22;10952;50.836;4.348;2023-02-08T12:12:27;18.40;42.70
21582;DHT22;10952;50.836;4.348;2023-02-08T12:18:02;18.00;42.90
21582;DHT22;10952;50.836;4.348;2023-02-08T12:20:44;18.10;43.80
21582;DHT22;10952;50.836;4.348;2023-02-08T12:23:40;18.00;43.90
21582;DHT22;10952;50.836;4.348;2023-02-08T12:30:03;18.00;42.90
21582;DHT22;10952;50.836;4.348;2023-02-08T12:32:40;17.10;43.50
21582;DHT22;10952;50.836;4.348;2023-02-08T12:47:44;17.10;45.40
21582;DHT22;10952;50.836;4.348;2023-02-08T12:56:12;17.50;45.40
21582;DHT22;10952;50.836;4.348;2023-02-08T12:58:44;17.80;45.30
21582;DHT22;10952;50.836;4.348;2023-02-08T13:04:05;17.40;45.60
21582;DHT22;10952;50.836;4.348;2023-02-08T13:06:47;17.30;45.20
21582;DHT22;10952;50.836;4.348;2023-02-08T13:15:07;16.90;47.00
21582;DHT22;10952;50.836;4.348;2023-02-08T13:17:50;16.90;46.60
21582;DHT22;10952;50.836;4.348;2023-02-08T13:20:31;16.50;47.10
21582;DHT22;10952;50.836;4.348;2023-02-08T13:23:02;16.60;47.30
21582;DHT22;10952;50.836;4.348;2023-02-08T13:25:35;16.30;47.90
21582;DHT22;10952;50.836;4.348;2023-02-08T13:28:06;16.30;47.90
21582;DHT22;10952;50.836;4.348;2023-02-08T13:34:26;16.40;48.60
21582;DHT22;10952;50.836;4.348;2023-02-08T13:36:56;15.90;49.50
21582;DHT22;10952;50.836;4.348;2023-02-08T13:39:34;16.00;49.40
21582;DHT22;10952;50.836;4.348;2023-02-08T13:42:02;15.60;49.70
21582;DHT22;10952;50.836;4.348;2023-02-08T13:44:37;15.50;50.00
21582;DHT22;10952;50.836;4.348;2023-02-08T13:47:06;14.20;51.80
21582;DHT22;10952;50.836;4.348;2023-02-08T13:49:57;13.40;53.30
21582;DHT22;10952;50.836;4.348;2023-02-08T14:03:34;12.30;56.20
21582;DHT22;10952;50.836;4.348;2023-02-08T14:08:58;11.50;57.10
21582;DHT22;10952;50.836;4.348;2023-02-08T14:11:56;11.50;57.50
21582;DHT22;10952;50.836;4.348;2023-02-08T14:14:35;11.40;57.70
21582;DHT22;10952;50.836;4.348;2023-02-08T14:17:22;11.40;57.80
21582;DHT22;10952;50.836;4.348;2023-02-08T14:20:05;11.60;58.10
21582;DHT22;10952;50.836;4.348;2023-02-08T14:22:46;11.50;57.90
21582;DHT22;10952;50.836;4.348;2023-02-08T14:25:22;11.30;58.10
21582;DHT22;10952;50.836;4.348;2023-02-08T14:28:00;10.90;58.50
21582;DHT22;10952;50.836;4.348;2023-02-08T14:30:33;10.60;59.30
21582;DHT22;10952;50.836;4.348;2023-02-08T14:33:12;10.60;59.60
21582;DHT22;10952;50.836;4.348;2023-02-08T14:35:59;10.70;60.10
21582;DHT22;10952;50.836;4.348;2023-02-08T14:41:54;10.90;59.40
21582;DHT22;10952;50.836;4.348;2023-02-08T14:50:16;10.90;59.20
21582;DHT22;10952;50.836;4.348;2023-02-08T14:55:39;10.80;60.00
21582;DHT22;10952;50.836;4.348;2023-02-08T14:58:11;10.70;60.00
21582;DHT22;10952;50.836;4.348;2023-02-08T15:00:40;10.60;60.10
21582;DHT22;10952;50.836;4.348;2023-02-08T15:03:13;10.80;60.90
21582;DHT22;10952;50.836;4.348;2023-02-08T15:08:50;10.80;60.90
21582;DHT22;10952;50.836;4.348;2023-02-08T15:11:25;11.00;61.20
21582;DHT22;10952;50.836;4.348;2023-02-08T15:13:54;11.20;61.20
21582;DHT22;10952;50.836;4.348;2023-02-08T15:16:25;11.20;61.50
21582;DHT22;10952;50.836;4.348;2023-02-08T15:18:52;11.20;61.40
21582;DHT22;10952;50.836;4.348;2023-02-08T15:21:23;11.20;61.20
21582;DHT22;10952;50.836;4.348;2023-02-08T15:24:19;10.80;62.20
21582;DHT22;10952;50.836;4.348;2023-02-08T15:26:51;10.50;63.30
21582;DHT22;10952;50.836;4.348;2023-02-08T15:29:28;10.60;63.60
21582;DHT22;10952;50.836;4.348;2023-02-08T15:32:10;10.40;63.90
21582;DHT22;10952;50.836;4.348;2023-02-08T15:34:46;10.40;64.70
21582;DHT22;10952;50.836;4.348;2023-02-08T15:37:32;10.40;64.40
21582;DHT22;10952;50.836;4.348;2023-02-08T15:40:04;10.40;64.80
21582;DHT22;10952;50.836;4.348;2023-02-08T15:42:49;10.30;65.00
21582;DHT22;10952;50.836;4.348;2023-02-08T15:45:26;10.30;65.70
21582;DHT22;10952;50.836;4.348;2023-02-08T15:48:06;9.80;67.20
21582;DHT22;10952;50.836;4.348;2023-02-08T15:51:03;9.70;68.20
21582;DHT22;10952;50.836;4.348;2023-02-08T15:54:12;9.60;68.10
21582;DHT22;10952;50.836;4.348;2023-02-08T15:56:50;9.40;68.60
21582;DHT22;10952;50.836;4.348;2023-02-08T15:59:23;9.40;68.00
21582;DHT22;10952;50.836;4.348;2023-02-08T16:05:25;9.30;68.70
21582;DHT22;10952;50.836;4.348;2023-02-08T16:08:20;9.40;69.20
21582;DHT22;10952;50.836;4.348;2023-02-08T16:10:57;9.30;69.80
21582;DHT22;10952;50.836;4.348;2023-02-08T16:13:35;9.30;70.80
21582;DHT22;10952;50.836;4.348;2023-02-08T16:19:04;9.20;71.90
21582;DHT22;10952;50.836;4.348;2023-02-08T16:21:40;9.20;71.80
21582;DHT22;10952;50.836;4.348;2023-02-08T16:24:22;9.30;72.30
21582;DHT22;10952;50.836;4.348;2023-02-08T16:27:19;9.50;72.30
21582;DHT22;10952;50.836;4.348;2023-02-08T16:29:51;9.40;72.00
21582;DHT22;10952;50.836;4.348;2023-02-08T16:32:26;9.30;72.20
21582;DHT22;10952;50.836;4.348;2023-02-08T16:34:59;9.20;72.50
21582;DHT22;10952;50.836;4.348;2023-02-08T16:38:05;9.10;72.80
21582;DHT22;10952;50.836;4.348;2023-02-08T16:43:43;9.10;72.90
21582;DHT22;10952;50.836;4.348;2023-02-08T16:46:17;9.00;73.60
21582;DHT22;10952;50.836;4.348;2023-02-08T16:48:56;8.90;73.70
21582;DHT22;10952;50.836;4.348;2023-02-08T16:51:32;8.80;74.00
21582;DHT22;10952;50.836;4.348;2023-02-08T16:54:23;8.90;75.10
21582;DHT22;10952;50.836;4.348;2023-02-08T16:56:57;8.80;74.20
21582;DHT22;10952;50.836;4.348;2023-02-08T16:59:28;8.70;74.50
21582;DHT22;10952;50.836;4.348;2023-02-08T17:01:56;8.70;73.60
21582;DHT22;10952;50.836;4.348;2023-02-08T17:04:33;8.60;74.10
21582;DHT22;10952;50.836;4.348;2023-02-08T17:07:01;8.50;74.40
21582;DHT22;10952;50.836;4.348;2023-02-08T17:09:27;8.50;74.40
21582;DHT22;10952;50.836;4.348;2023-02-08T17:11:56;8.30;74.20
21582;DHT22;10952;50.836;4.348;2023-02-08T17:14:22;8.30;74.90
21582;DHT22;10952;50.836;4.348;2023-02-08T17:16:47;8.40;75.00
21582;DHT22;10952;50.836;4.348;2023-02-08T17:19:16;8.40;75.70
21582;DHT22;10952;50.836;4.348;2023-02-08T17:22:05;8.40;75.20
21582;DHT22;10952;50.836;4.348;2023-02-08T17:24:33;8.40;75.60
21582;DHT22;10952;50.836;4.348;2023-02-08T17:27:02;8.40;74.90
21582;DHT22;10952;50.836;4.348;2023-02-08T17:29:52;8.30;74.70
21582;DHT22;10952;50.836;4.348;2023-02-08T17:32:37;8.30;75.00
21582;DHT22;10952;50.836;4.348;2023-02-08T17:38:29;8.10;75.40
21582;DHT22;10952;50.836;4.348;2023-02-08T17:40:56;8.00;76.50
21582;DHT22;10952;50.836;4.348;2023-02-08T17:43:24;7.90;76.10
21582;DHT22;10952;50.836;4.348;2023-02-08T17:45:56;7.90;76.90
21582;DHT22;10952;50.836;4.348;2023-02-08T17:48:24;7.80;77.40
21582;DHT22;10952;50.836;4.348;2023-02-08T17:50:51;7.70;78.00
21582;DHT22;10952;50.836;4.348;2023-02-08T17:53:20;7.70;78.50
21582;DHT22;10952;50.836;4.348;2023-02-08T17:55:48;7.60;78.90
21582;DHT22;10952;50.836;4.348;2023-02-08T17:58:33;7.60;79.70
21582;DHT22;10952;50.836;4.348;2023-02-08T18:01:02;7.60;79.50
21582;DHT22;10952;50.836;4.348;2023-02-08T18:03:33;7.60;79.50
21582;DHT22;10952;50.836;4.348;2023-02-08T18:06:02;7.60;79.80
21582;DHT22;10952;50.836;4.348;2023-02-08T18:08:33;7.60;79.90
21582;DHT22;10952;50.836;4.348;2023-02-08T18:11:06;7.50;80.20
21582;DHT22;10952;50.836;4.348;2023-02-08T18:13:36;7.50;80.30
21582;DHT22;10952;50.836;4.348;2023-02-08T18:16:37;7.50;80.20
21582;DHT22;10952;50.836;4.348;2023-02-08T18:19:05;7.60;80.20
21582;DHT22;10952;50.836;4.348;2023-02-08T18:21:32;7.50;80.10
21582;DHT22;10952;50.836;4.348;2023-02-08T18:24:04;7.50;80.60
21582;DHT22;10952;50.836;4.348;2023-02-08T18:26:31;7.50;80.50
21582;DHT22;10952;50.836;4.348;2023-02-08T18:29:06;7.70;80.80
21582;DHT22;10952;50.836;4.348;2023-02-08T18:31:33;7.60;81.00
21582;DHT22;10952;50.836;4.348;2023-02-08T18:34:02;7.60;81.00
21582;DHT22;10952;50.836;4.348;2023-02-08T18:36:29;7.50;81.30
21582;DHT22;10952;50.836;4.348;2023-02-08T18:38:55;7.60;80.90
21582;DHT22;10952;50.836;4.348;2023-02-08T18:41:24;7.60;81.00
21582;DHT22;10952;50.836;4.348;2023-02-08T18:43:51;7.60;81.20
21582;DHT22;10952;50.836;4.348;2023-02-08T18:46:21;7.60;81.00
21582;DHT22;10952;50.836;4.348;2023-02-08T18:48:49;7.60;80.70
21582;DHT22;10952;50.836;4.348;2023-02-08T18:51:21;7.60;80.60
21582;DHT22;10952;50.836;4.348;2023-02-08T18:53:52;7.60;80.80
21582;DHT22;10952;50.836;4.348;2023-02-08T18:56:22;7.60;80.30
21582;DHT22;10952;50.836;4.348;2023-02-08T18:58:49;7.50;80.50
21582;DHT22;10952;50.836;4.348;2023-02-08T19:01:21;7.50;80.80
21582;DHT22;10952;50.836;4.348;2023-02-08T19:03:48;7.50;80.70
21582;DHT22;10952;50.836;4.348;2023-02-08T19:06:19;7.50;81.10